createdAt,value
2022-10-15T00:01:55.664Z,1.40
2022-10-15T00:04:26.343Z,1.50
2022-10-15T00:06:57.830Z,1.60
2022-10-15T02:33:57.066Z,1.30
2022-10-15T02:35:41.569Z,1.60
2022-10-15T02:38:18.126Z,1.30
2022-10-15T02:54:24.191Z,0.93
2022-10-15T02:56:59.614Z,1.33
2022-10-15T02:59:30.498Z,1.10
2022-10-15T03:08:12.630Z,1.37
2022-10-15T03:10:45.048Z,1.40
2022-10-15T03:13:18.146Z,1.00
2022-10-15T03:15:49.125Z,1.07
2022-10-15T03:18:19.620Z,1.07
2022-10-15T03:20:56.706Z,1.10
2022-10-15T03:26:33.646Z,1.10
2022-10-15T03:29:29.219Z,1.17
2022-10-15T03:35:00.535Z,0.90
2022-10-15T03:37:36.027Z,1.00
2022-10-15T03:40:08.277Z,1.03
2022-10-15T03:42:44.962Z,0.97
2022-10-15T03:45:18.127Z,1.20
2022-10-15T03:47:55.847Z,1.00
2022-10-15T03:53:10.357Z,0.90
2022-10-15T03:58:26.379Z,1.10
2022-10-15T04:00:57.666Z,1.10
2022-10-15T04:03:32.405Z,1.13
2022-10-15T04:06:03.493Z,1.40
2022-10-15T04:08:34.007Z,0.80
2022-10-15T04:11:11.402Z,1.10
2022-10-15T04:13:56.876Z,1.10
2022-10-15T04:16:26.816Z,0.90
2022-10-15T04:19:07.352Z,1.07
2022-10-15T04:30:37.610Z,0.90
2022-10-15T04:33:14.934Z,1.30
2022-10-15T04:35:47.717Z,0.60
2022-10-15T04:38:18.319Z,0.80
2022-10-15T04:41:04.925Z,0.77
2022-10-15T04:46:51.594Z,0.77
2022-10-15T04:49:24.940Z,0.87
2022-10-15T05:00:29.073Z,0.90
2022-10-15T05:03:00.594Z,0.87
2022-10-15T05:05:53.191Z,1.33
2022-10-15T05:08:28.396Z,0.73
2022-10-15T05:11:06.318Z,0.90
2022-10-15T05:17:02.381Z,0.50
2022-10-15T05:19:45.501Z,0.90
2022-10-15T05:22:43.768Z,0.80
2022-10-15T05:34:59.008Z,0.77
2022-10-15T05:54:42.935Z,0.80
2022-10-15T05:59:57.619Z,1.00
2022-10-15T06:02:27.745Z,0.80
2022-10-15T06:04:56.902Z,1.50
2022-10-15T06:07:25.600Z,1.20
2022-10-15T06:09:55.785Z,1.03
2022-10-15T06:12:24.382Z,0.90
2022-10-15T06:14:54.809Z,0.93
2022-10-15T06:17:24.330Z,0.93
2022-10-15T06:19:54.268Z,1.10
2022-10-15T06:22:24.319Z,1.00
2022-10-15T06:24:54.153Z,0.87
2022-10-15T06:27:28.407Z,1.60
2022-10-15T06:32:42.035Z,1.10
2022-10-15T06:35:14.247Z,0.70
2022-10-15T06:37:47.962Z,0.97
2022-10-15T06:40:20.417Z,0.80
2022-10-15T06:43:36.793Z,0.80
2022-10-15T06:46:23.100Z,0.80
2022-10-15T06:48:57.538Z,0.73
2022-10-15T06:54:13.286Z,0.90
2022-10-15T07:11:45.029Z,1.00
2022-10-15T07:14:13.302Z,0.80
2022-10-15T07:27:53.423Z,0.90
2022-10-15T07:30:22.817Z,1.33
2022-10-15T07:32:56.749Z,0.90
2022-10-15T07:35:26.290Z,1.07
2022-10-15T07:37:55.738Z,1.20
2022-10-15T07:40:27.476Z,1.30
2022-10-15T07:43:01.470Z,1.03
2022-10-15T07:45:31.113Z,1.20
2022-10-15T07:48:06.831Z,0.70
2022-10-15T07:50:38.209Z,1.20
2022-10-15T07:53:10.786Z,1.10
2022-10-15T07:55:39.760Z,0.83
2022-10-15T07:58:12.017Z,0.77
2022-10-15T08:00:44.203Z,0.87
2022-10-15T08:03:12.937Z,0.90
2022-10-15T08:05:42.079Z,0.80
2022-10-15T08:08:22.821Z,0.80
2022-10-15T08:10:57.671Z,0.70
2022-10-15T08:13:59.507Z,0.70
2022-10-15T08:19:17.713Z,0.60
2022-10-15T08:28:32.044Z,0.77
2022-10-15T08:34:01.153Z,0.83
2022-10-15T08:36:32.469Z,0.80
2022-10-15T08:41:57.654Z,1.07
2022-10-15T08:48:28.045Z,0.70
2022-10-15T08:51:28.738Z,0.70
2022-10-15T08:54:01.831Z,0.80
2022-10-15T09:00:04.385Z,0.70
2022-10-15T09:05:36.634Z,0.80
2022-10-15T09:14:57.097Z,0.73
2022-10-15T09:20:45.457Z,0.60
2022-10-15T09:45:57.634Z,1.10
2022-10-15T11:39:06.948Z,1.13
2022-10-15T11:53:43.429Z,0.90
2022-10-15T11:56:17.898Z,0.80
2022-10-15T11:58:55.357Z,0.90
2022-10-15T12:01:34.050Z,0.70
2022-10-15T12:04:10.385Z,0.87
2022-10-15T12:06:51.705Z,1.03
2022-10-15T12:09:30.951Z,0.80
2022-10-15T12:12:10.288Z,0.77
2022-10-15T12:14:46.002Z,0.83
2022-10-15T12:17:26.893Z,0.70
2022-10-15T12:20:01.086Z,0.97
2022-10-15T12:22:38.517Z,0.87
2022-10-15T12:28:42.014Z,1.03
2022-10-15T12:31:11.248Z,0.90
2022-10-15T12:34:01.517Z,1.00
2022-10-15T12:43:05.462Z,0.73
2022-10-15T12:45:47.498Z,0.70
2022-10-15T12:48:30.325Z,0.90
2022-10-15T12:51:38.578Z,0.80
2022-10-15T12:54:35.710Z,0.60
2022-10-15T12:57:06.566Z,1.00
2022-10-15T12:59:56.537Z,0.90
2022-10-15T13:02:39.490Z,1.10
2022-10-15T13:05:10.271Z,0.77
2022-10-15T13:07:42.155Z,1.07
2022-10-15T13:10:28.290Z,1.00
2022-10-15T13:13:15.565Z,0.90
2022-10-15T13:15:45.944Z,1.00
2022-10-15T13:18:20.525Z,0.90
2022-10-15T13:20:56.547Z,1.10
2022-10-15T13:23:34.428Z,1.10
2022-10-15T13:26:20.332Z,0.77
2022-10-15T13:31:48.453Z,1.00
2022-10-15T13:34:33.366Z,0.80
2022-10-15T13:37:18.904Z,1.10
2022-10-15T13:39:51.586Z,1.13
2022-10-15T13:42:24.264Z,1.20
2022-10-15T13:53:56.019Z,1.20
2022-10-15T13:56:50.221Z,1.03
2022-10-15T13:59:22.846Z,1.10
2022-10-15T14:02:02.526Z,1.50
2022-10-15T14:04:41.578Z,1.30
2022-10-15T14:07:41.558Z,1.10
2022-10-15T14:10:28.989Z,0.90
2022-10-15T14:13:18.116Z,1.13
2022-10-15T14:15:53.586Z,1.20
2022-10-15T14:21:34.273Z,1.10
2022-10-15T14:24:28.764Z,1.20
2022-10-15T14:27:11.979Z,1.13
2022-10-15T14:29:57.865Z,1.30
2022-10-15T14:38:29.925Z,1.00
2022-10-15T14:47:59.103Z,1.20
2022-10-15T14:50:44.037Z,1.40
2022-10-15T14:53:34.347Z,1.30
2022-10-15T14:56:23.366Z,1.00
2022-10-15T15:04:44.067Z,1.17
2022-10-15T15:13:10.199Z,1.13
2022-10-15T15:15:45.558Z,1.77
2022-10-15T15:18:15.681Z,1.67
2022-10-15T15:20:53.391Z,1.20
2022-10-15T16:09:12.792Z,1.30
2022-10-15T16:11:41.466Z,1.30
2022-10-15T16:14:10.944Z,1.47
2022-10-15T16:16:46.918Z,1.50
2022-10-15T16:19:15.450Z,1.30
2022-10-15T16:21:54.027Z,1.23
2022-10-15T16:24:27.053Z,1.40
2022-10-15T16:27:14.875Z,1.40
2022-10-15T16:32:45.545Z,1.23
2022-10-15T16:35:20.200Z,1.10
2022-10-15T16:37:53.531Z,1.10
2022-10-15T16:48:49.941Z,1.47
2022-10-15T16:51:35.619Z,1.33
2022-10-15T16:54:08.594Z,1.40
2022-10-15T16:59:31.058Z,1.30
2022-10-15T17:02:19.499Z,1.47
2022-10-15T17:07:34.348Z,1.47
2022-10-15T17:18:34.718Z,1.57
2022-10-15T17:27:17.135Z,1.50
2022-10-15T18:00:32.711Z,1.83
2022-10-15T18:03:19.128Z,1.93
2022-10-15T18:11:40.670Z,2.10
2022-10-15T18:14:09.333Z,1.73
2022-10-15T18:16:40.340Z,1.73
2022-10-15T18:19:08.780Z,2.10
2022-10-15T18:21:37.584Z,2.00
2022-10-15T18:24:06.141Z,2.30
2022-10-15T18:26:34.271Z,2.10
2022-10-15T18:29:06.107Z,2.03
2022-10-15T18:31:37.352Z,2.10
2022-10-15T18:34:12.820Z,2.20
2022-10-15T18:36:44.120Z,2.20
2022-10-15T18:39:26.440Z,2.00
2022-10-15T18:44:38.848Z,1.80
2022-10-15T18:47:21.846Z,2.00
2022-10-15T18:52:39.443Z,2.07
2022-10-15T18:55:13.022Z,2.30
2022-10-15T19:31:19.206Z,2.77
2022-10-15T19:48:17.761Z,2.80
2022-10-15T20:02:43.416Z,2.10
2022-10-15T20:05:35.137Z,2.63
2022-10-15T23:02:32.495Z,1.77
2022-10-15T23:08:48.640Z,1.77
2022-10-15T23:28:47.178Z,2.00
2022-10-15T23:34:35.717Z,1.83
